createdAt,value
2018-04-26T00:00:52.761Z,100134.75
2018-04-26T00:01:59.058Z,100139.35
2018-04-26T00:03:10.810Z,100137.12
2018-04-26T00:04:19.998Z,100132.77
2018-04-26T00:05:27.151Z,100133.36
2018-04-26T00:06:35.186Z,100136.21
2018-04-26T00:07:41.366Z,100132.88
2018-04-26T00:08:47.584Z,100133.33
2018-04-26T00:09:53.823Z,100132.89
2018-04-26T00:10:59.798Z,100133.45
2018-04-26T00:12:06.008Z,100124.17
2018-04-26T00:13:12.230Z,100125.22
2018-04-26T00:14:19.358Z,100122.57
2018-04-26T00:15:25.710Z,100121.16
2018-04-26T00:16:31.747Z,100124.34
2018-04-26T00:17:38.103Z,100118.58
2018-04-26T00:18:44.313Z,100119.35
2018-04-26T00:19:50.530Z,100116.52
2018-04-26T00:20:56.721Z,100113.44
2018-04-26T00:22:02.930Z,100108.16
2018-04-26T00:23:09.130Z,100114.28
2018-04-26T00:24:15.342Z,100114.55
2018-04-26T00:25:21.581Z,100112.81
2018-04-26T00:26:32.953Z,100117.96
2018-04-26T00:27:39.286Z,100111.30
2018-04-26T00:28:45.496Z,100110.38
2018-04-26T00:29:52.486Z,100116.31
2018-04-26T00:30:58.455Z,100115.16
2018-04-26T00:32:04.722Z,100116.88
2018-04-26T00:33:10.958Z,100118.28
2018-04-26T00:34:17.139Z,100109.36
2018-04-26T00:35:23.392Z,100110.53
2018-04-26T00:36:30.334Z,100114.63
2018-04-26T00:37:36.619Z,100111.58
2018-04-26T00:38:42.819Z,100112.91
2018-04-26T00:39:49.065Z,100111.44
2018-04-26T00:40:55.225Z,100115.16
2018-04-26T00:42:01.442Z,100119.16
2018-04-26T00:43:07.657Z,100113.28
2018-04-26T00:44:14.859Z,100113.73
2018-04-26T00:45:21.168Z,100115.48
2018-04-26T00:46:27.615Z,100114.55
2018-04-26T00:47:33.868Z,100123.14
2018-04-26T00:48:40.110Z,100114.27
2018-04-26T00:49:47.450Z,100116.77
2018-04-26T00:50:54.284Z,100114.47
2018-04-26T00:52:01.520Z,100107.52
2018-04-26T00:53:07.765Z,100111.28
2018-04-26T00:54:14.572Z,100109.27
2018-04-26T00:55:20.796Z,100103.83
2018-04-26T00:56:27.009Z,100102.98
2018-04-26T00:57:34.173Z,100100.25
2018-04-26T00:58:40.325Z,100109.96
2018-04-26T00:59:46.326Z,100113.79
2018-04-26T01:00:52.531Z,100105.37
2018-04-26T01:02:00.671Z,100107.34
2018-04-26T01:03:06.903Z,100100.73
2018-04-26T01:04:13.119Z,100103.75
2018-04-26T01:05:19.498Z,100097.15
2018-04-26T01:06:25.875Z,100100.06
2018-04-26T01:07:32.111Z,100091.48
2018-04-26T01:08:38.359Z,100096.90
2018-04-26T01:09:44.696Z,100099.65
2018-04-26T01:10:52.669Z,100094.53
2018-04-26T01:12:04.046Z,100100.30
2018-04-26T01:13:10.267Z,100095.02
2018-04-26T01:14:16.470Z,100090.69
2018-04-26T01:15:22.692Z,100092.80
2018-04-26T01:16:28.913Z,100098.33
2018-04-26T01:17:35.191Z,100091.00
2018-04-26T01:18:41.413Z,100094.48
2018-04-26T01:19:47.746Z,100098.89
2018-04-26T01:20:53.928Z,100096.02
2018-04-26T01:22:00.151Z,100100.04
2018-04-26T01:23:06.352Z,100100.94
2018-04-26T01:24:12.552Z,100102.81
2018-04-26T01:25:18.787Z,100103.35
2018-04-26T01:26:24.976Z,100107.22
2018-04-26T01:27:30.957Z,100101.45
2018-04-26T01:28:42.688Z,100097.56
2018-04-26T01:29:50.079Z,100096.48
2018-04-26T01:30:56.289Z,100096.05
2018-04-26T01:32:02.576Z,100094.61
2018-04-26T01:33:12.883Z,100091.13
2018-04-26T01:34:19.085Z,100094.97
2018-04-26T01:35:25.310Z,100088.08
2018-04-26T01:36:42.769Z,100088.84
2018-04-26T01:37:48.889Z,100087.95
2018-04-26T01:38:55.076Z,100087.28
2018-04-26T01:40:01.798Z,100091.28
2018-04-26T01:41:08.035Z,100093.02
2018-04-26T01:42:14.307Z,100091.48
2018-04-26T01:43:19.886Z,100091.30
2018-04-26T01:44:26.155Z,100091.50
2018-04-26T01:45:32.360Z,100096.00
2018-04-26T01:46:38.649Z,100094.13
2018-04-26T01:47:44.862Z,100097.68
2018-04-26T01:48:51.074Z,100095.13
2018-04-26T01:49:57.268Z,100091.69
2018-04-26T01:51:03.562Z,100096.39
2018-04-26T01:52:10.024Z,100090.77
2018-04-26T01:53:16.250Z,100098.55
2018-04-26T01:54:23.239Z,100090.06
2018-04-26T01:55:29.472Z,100090.47
2018-04-26T01:56:35.787Z,100088.47
2018-04-26T01:57:41.789Z,100093.09
2018-04-26T01:58:47.981Z,100089.34
2018-04-26T01:59:56.016Z,100089.05
2018-04-26T02:01:02.203Z,100087.11
2018-04-26T02:02:08.136Z,100089.70
2018-04-26T02:03:14.061Z,100084.33
2018-04-26T02:04:20.592Z,100087.35
2018-04-26T02:05:26.879Z,100082.34
2018-04-26T02:06:33.111Z,100085.98
2018-04-26T02:07:39.295Z,100078.69
2018-04-26T02:08:45.598Z,100084.20
2018-04-26T02:09:51.796Z,100081.47
2018-04-26T02:10:58.043Z,100086.39
2018-04-26T02:12:03.967Z,100091.14
2018-04-26T02:13:10.238Z,100089.30
2018-04-26T02:14:16.443Z,100099.20
2018-04-26T02:15:24.959Z,100092.50
2018-04-26T02:16:42.446Z,100094.42
2018-04-26T02:17:49.198Z,100100.59
2018-04-26T02:18:55.115Z,100106.33
2018-04-26T02:20:01.152Z,100109.15
2018-04-26T02:21:07.437Z,100111.81
2018-04-26T02:22:13.598Z,100120.22
2018-04-26T02:23:19.807Z,100120.40
2018-04-26T02:24:26.219Z,100119.21
2018-04-26T02:25:32.428Z,100112.70
2018-04-26T02:26:38.682Z,100112.97
2018-04-26T02:27:44.899Z,100114.60
2018-04-26T02:28:51.219Z,100111.01
2018-04-26T02:29:57.373Z,100109.70
2018-04-26T02:31:05.295Z,100105.48
2018-04-26T02:32:11.740Z,100108.59
2018-04-26T02:33:18.131Z,100106.05
2018-04-26T02:34:25.059Z,100112.65
2018-04-26T02:35:30.999Z,100119.52
2018-04-26T02:36:37.351Z,100117.19
2018-04-26T02:37:44.710Z,100113.89
2018-04-26T02:38:50.963Z,100117.98
2018-04-26T02:39:57.279Z,100111.20
2018-04-26T02:41:04.763Z,100103.38
2018-04-26T02:42:12.439Z,100101.32
2018-04-26T02:43:18.415Z,100100.76
2018-04-26T02:44:24.664Z,100096.88
2018-04-26T02:45:30.467Z,100095.52
2018-04-26T02:46:40.480Z,100102.57
2018-04-26T02:47:46.657Z,100100.89
2018-04-26T02:48:53.062Z,100096.45
2018-04-26T02:49:58.972Z,100098.30
2018-04-26T02:51:05.179Z,100095.36
2018-04-26T02:52:11.564Z,100100.23
2018-04-26T02:53:18.036Z,100097.13
2018-04-26T02:54:24.248Z,100096.24
2018-04-26T02:55:33.429Z,100105.91
2018-04-26T02:56:41.204Z,100105.75
2018-04-26T02:57:47.470Z,100092.39
2018-04-26T02:58:53.670Z,100095.70
2018-04-26T03:00:00.003Z,100092.77
2018-04-26T03:01:06.248Z,100095.41
2018-04-26T03:02:14.044Z,100096.52
2018-04-26T03:03:22.072Z,100094.09
2018-04-26T03:04:28.316Z,100097.15
2018-04-26T03:05:34.731Z,100095.14
2018-04-26T03:06:40.782Z,100094.19
2018-04-26T03:07:47.268Z,100090.90
2018-04-26T03:08:53.466Z,100085.21
2018-04-26T03:09:59.783Z,100079.41
2018-04-26T03:11:06.134Z,100075.86
2018-04-26T03:12:12.055Z,100075.94
2018-04-26T03:13:19.299Z,100073.97
2018-04-26T03:14:25.211Z,100078.13
2018-04-26T03:15:31.511Z,100083.78
2018-04-26T03:16:38.220Z,100078.97
2018-04-26T03:17:46.406Z,100079.30
2018-04-26T03:18:54.262Z,100081.59
2018-04-26T03:20:00.476Z,100084.50
2018-04-26T03:21:06.776Z,100085.47
2018-04-26T03:22:12.988Z,100083.60
2018-04-26T03:23:19.208Z,100090.27
2018-04-26T03:24:25.444Z,100087.40
2018-04-26T03:25:32.193Z,100087.48
2018-04-26T03:26:38.472Z,100081.06
2018-04-26T03:27:44.744Z,100088.53
2018-04-26T03:28:51.544Z,100087.88
2018-04-26T03:29:57.928Z,100089.09
2018-04-26T03:31:05.445Z,100090.27
2018-04-26T03:32:12.951Z,100093.09
2018-04-26T03:33:20.965Z,100093.98
2018-04-26T03:34:29.505Z,100091.66
2018-04-26T03:35:35.812Z,100092.13
2018-04-26T03:36:41.992Z,100090.92
2018-04-26T03:37:50.002Z,100092.96
2018-04-26T03:38:56.639Z,100098.31
2018-04-26T03:40:03.334Z,100090.81
2018-04-26T03:41:09.811Z,100091.75
2018-04-26T03:42:16.223Z,100099.72
2018-04-26T03:43:22.703Z,100095.84
2018-04-26T03:44:29.186Z,100103.61
2018-04-26T03:45:35.457Z,100093.32
2018-04-26T03:46:41.825Z,100095.27
2018-04-26T03:47:48.131Z,100091.16
2018-04-26T03:48:55.138Z,100098.62
2018-04-26T03:50:01.865Z,100098.81
2018-04-26T03:51:08.159Z,100090.27
2018-04-26T03:52:14.032Z,100091.25
2018-04-26T03:53:20.280Z,100098.07
2018-04-26T03:54:26.475Z,100094.84
2018-04-26T03:55:33.361Z,100091.66
2018-04-26T03:56:39.710Z,100096.48
2018-04-26T03:57:45.941Z,100089.06
2018-04-26T03:58:57.833Z,100092.11
2018-04-26T04:00:20.417Z,100095.77
2018-04-26T04:01:37.458Z,100097.03
2018-04-26T04:02:54.498Z,100096.41
2018-04-26T04:05:53.785Z,100098.58
2018-04-26T04:07:00.050Z,100094.94
2018-04-26T04:08:06.291Z,100095.82
2018-04-26T04:09:12.478Z,100102.95
2018-04-26T04:10:21.212Z,100098.31
2018-04-26T04:11:29.263Z,100099.64
2018-04-26T04:12:35.872Z,100099.69
2018-04-26T04:13:42.848Z,100108.02
2018-04-26T04:14:50.753Z,100113.05
2018-04-26T04:15:59.610Z,100110.33
2018-04-26T04:17:05.989Z,100111.20
2018-04-26T04:18:12.328Z,100114.63
2018-04-26T04:19:20.238Z,100112.88
2018-04-26T04:20:27.959Z,100114.45
2018-04-26T04:21:35.138Z,100110.98
2018-04-26T04:22:41.440Z,100112.56
2018-04-26T04:23:48.458Z,100121.70
2018-04-26T04:24:54.752Z,100113.39
2018-04-26T04:26:02.240Z,100115.91
2018-04-26T04:27:08.303Z,100115.91
2018-04-26T04:28:14.516Z,100113.67
2018-04-26T04:29:20.707Z,100118.88
2018-04-26T04:30:26.949Z,100122.64
2018-04-26T04:31:34.211Z,100117.75
2018-04-26T04:32:40.501Z,100115.61
2018-04-26T04:33:46.910Z,100113.44
2018-04-26T04:34:53.223Z,100112.52
2018-04-26T04:35:59.530Z,100113.23
2018-04-26T04:37:05.823Z,100114.59
2018-04-26T04:38:12.016Z,100113.16
2018-04-26T04:39:18.244Z,100115.94
2018-04-26T04:40:24.547Z,100118.30
2018-04-26T04:41:31.251Z,100117.20
2018-04-26T04:42:37.501Z,100115.31
2018-04-26T04:43:43.899Z,100122.94
2018-04-26T04:44:50.326Z,100115.72
2018-04-26T04:45:56.628Z,100124.44
2018-04-26T04:47:02.839Z,100128.10
2018-04-26T04:48:09.074Z,100123.91
2018-04-26T04:49:15.390Z,100130.12
2018-04-26T04:50:21.680Z,100122.31
2018-04-26T04:51:27.943Z,100125.78
2018-04-26T04:52:34.148Z,100131.07
2018-04-26T04:53:40.437Z,100130.59
2018-04-26T04:54:46.715Z,100127.98
2018-04-26T04:55:53.087Z,100133.42
2018-04-26T04:56:59.374Z,100136.46
2018-04-26T04:58:05.800Z,100134.53
2018-04-26T04:59:12.944Z,100137.76
2018-04-26T05:00:19.669Z,100133.11
2018-04-26T05:01:26.391Z,100138.13
2018-04-26T05:02:33.382Z,100136.50
2018-04-26T05:03:39.758Z,100135.97
2018-04-26T05:04:47.018Z,100135.34
2018-04-26T05:05:53.627Z,100130.70
2018-04-26T05:07:00.863Z,100138.28
2018-04-26T05:08:07.089Z,100138.13
2018-04-26T05:09:13.381Z,100142.56
2018-04-26T05:10:19.724Z,100143.02
2018-04-26T05:11:26.017Z,100141.36
2018-04-26T05:12:32.318Z,100147.27
2018-04-26T05:13:39.356Z,100141.42
2018-04-26T05:14:45.547Z,100150.66
2018-04-26T05:15:51.755Z,100149.17
2018-04-26T05:16:57.969Z,100155.80
2018-04-26T05:18:04.315Z,100158.07
2018-04-26T05:19:10.523Z,100161.77
2018-04-26T05:20:16.811Z,100156.20
2018-04-26T05:21:23.123Z,100157.76
2018-04-26T05:22:32.348Z,100162.44
2018-04-26T05:23:39.658Z,100161.28
2018-04-26T05:24:45.931Z,100156.98
2018-04-26T05:25:53.395Z,100163.37
2018-04-26T05:26:59.774Z,100167.83
2018-04-26T05:28:05.982Z,100164.20
2018-04-26T05:29:13.346Z,100159.12
2018-04-26T05:30:19.636Z,100161.10
2018-04-26T05:31:25.926Z,100159.09
2018-04-26T05:32:32.228Z,100167.83
2018-04-26T05:33:38.638Z,100167.32
2018-04-26T05:34:44.901Z,100165.95
2018-04-26T05:35:51.300Z,100171.92
2018-04-26T05:36:59.150Z,100169.32
2018-04-26T05:38:06.763Z,100169.58
2018-04-26T05:39:14.195Z,100170.35
2018-04-26T05:40:20.434Z,100181.27
2018-04-26T05:41:26.648Z,100175.86
2018-04-26T05:42:32.958Z,100171.88
2018-04-26T05:43:39.191Z,100162.08
2018-04-26T05:44:45.471Z,100168.92
2018-04-26T05:45:52.811Z,100167.98
2018-04-26T05:46:59.170Z,100177.19
2018-04-26T05:48:05.360Z,100172.66
2018-04-26T05:49:11.666Z,100170.94
2018-04-26T05:50:17.769Z,100176.72
2018-04-26T05:51:24.102Z,100177.23
2018-04-26T05:52:30.370Z,100176.13
2018-04-26T05:53:38.200Z,100181.00
2018-04-26T05:54:45.459Z,100176.92
2018-04-26T05:55:51.987Z,100171.25
2018-04-26T05:56:58.370Z,100175.47
2018-04-26T05:58:04.600Z,100177.16
2018-04-26T05:59:10.819Z,100178.34
2018-04-26T06:00:17.139Z,100181.55
2018-04-26T06:01:23.143Z,100190.00
2018-04-26T06:02:29.580Z,100180.42
2018-04-26T06:03:35.894Z,100182.08
2018-04-26T06:04:42.204Z,100187.24
2018-04-26T06:05:49.318Z,100186.30
2018-04-26T06:06:55.611Z,100186.61
2018-04-26T06:08:01.922Z,100186.39
2018-04-26T06:09:08.345Z,100191.94
2018-04-26T06:10:16.173Z,100192.05
2018-04-26T06:11:22.614Z,100184.55
2018-04-26T06:12:29.094Z,100182.55
2018-04-26T06:13:35.282Z,100188.28
2018-04-26T06:14:41.323Z,100182.28
2018-04-26T06:15:47.503Z,100185.28
2018-04-26T06:16:53.755Z,100193.13
2018-04-26T06:18:00.031Z,100194.26
2018-04-26T06:19:06.382Z,100195.70
2018-04-26T06:20:13.410Z,100197.98
2018-04-26T06:21:19.711Z,100208.88
2018-04-26T06:22:26.011Z,100205.47
2018-04-26T06:23:32.291Z,100199.45
2018-04-26T06:24:38.540Z,100201.80
2018-04-26T06:25:45.018Z,100197.89
2018-04-26T06:26:53.935Z,100198.17
2018-04-26T06:28:00.227Z,100200.38
2018-04-26T06:29:06.432Z,100201.06
2018-04-26T06:30:12.751Z,100198.45
2018-04-26T06:31:19.297Z,100201.78
2018-04-26T06:32:25.612Z,100211.54
2018-04-26T06:33:32.399Z,100206.84
2018-04-26T06:34:38.671Z,100208.03
2018-04-26T06:35:44.696Z,100205.55
2018-04-26T06:36:51.086Z,100205.77
2018-04-26T06:37:58.125Z,100211.38
2018-04-26T06:39:03.691Z,100207.30
2018-04-26T06:40:09.659Z,100211.13
2018-04-26T06:41:15.871Z,100209.75
2018-04-26T06:42:22.077Z,100217.84
2018-04-26T06:43:28.467Z,100214.71
2018-04-26T06:44:34.746Z,100208.66
2018-04-26T06:45:41.190Z,100209.30
2018-04-26T06:46:49.863Z,100207.67
2018-04-26T06:47:56.118Z,100215.50
2018-04-26T06:49:02.499Z,100206.00
2018-04-26T06:50:08.737Z,100209.38
2018-04-26T06:51:15.048Z,100208.02
2018-04-26T06:52:21.343Z,100211.23
2018-04-26T06:53:27.652Z,100212.33
2018-04-26T06:54:34.688Z,100210.77
2018-04-26T06:55:41.007Z,100216.77
2018-04-26T06:56:47.310Z,100214.72
2018-04-26T06:57:53.606Z,100212.30
2018-04-26T06:58:59.816Z,100209.95
2018-04-26T07:00:05.734Z,100214.45
2018-04-26T07:01:14.598Z,100204.77
2018-04-26T07:02:22.067Z,100205.91
2018-04-26T07:03:28.123Z,100207.98
2018-04-26T07:04:34.382Z,100208.19
2018-04-26T07:05:40.724Z,100203.90
2018-04-26T07:06:47.192Z,100207.17
2018-04-26T07:08:04.471Z,100209.14
2018-04-26T07:09:11.760Z,100213.72
2018-04-26T07:10:18.034Z,100222.02
2018-04-26T07:11:24.308Z,100215.84
2018-04-26T07:12:30.581Z,100226.36
2018-04-26T07:13:36.851Z,100217.13
2018-04-26T07:14:43.131Z,100218.44
2018-04-26T07:15:49.375Z,100221.21
2018-04-26T07:16:55.620Z,100227.40
2018-04-26T07:18:01.863Z,100226.19
2018-04-26T07:19:08.165Z,100240.30
2018-04-26T07:20:14.394Z,100234.47
2018-04-26T07:21:20.696Z,100229.78
2018-04-26T07:22:26.906Z,100233.97
2018-04-26T07:23:33.111Z,100234.14
2018-04-26T07:24:39.324Z,100234.06
2018-04-26T07:25:45.578Z,100242.25
2018-04-26T07:26:51.852Z,100242.67
2018-04-26T07:27:58.131Z,100241.68
2018-04-26T07:29:06.842Z,100237.81
2018-04-26T07:30:18.028Z,100246.67
2018-04-26T07:31:24.269Z,100252.58
2018-04-26T07:32:31.270Z,100246.14
2018-04-26T07:33:37.547Z,100254.59
2018-04-26T07:34:43.985Z,100243.39
2018-04-26T07:35:50.267Z,100244.87
2018-04-26T07:36:56.539Z,100240.37
2018-04-26T07:38:02.862Z,100240.37
2018-04-26T07:39:09.174Z,100254.09
2018-04-26T07:40:15.211Z,100250.48
2018-04-26T07:41:22.198Z,100261.61
2018-04-26T07:42:28.391Z,100249.69
2018-04-26T07:43:34.901Z,100246.27
2018-04-26T07:44:41.115Z,100259.87
2018-04-26T07:45:47.363Z,100249.52
2018-04-26T07:46:53.423Z,100253.76
2018-04-26T07:48:00.550Z,100245.91
2018-04-26T07:49:07.196Z,100245.33
2018-04-26T07:50:13.199Z,100250.80
2018-04-26T07:51:21.981Z,100255.28
2018-04-26T07:52:28.274Z,100251.98
2018-04-26T07:53:34.478Z,100240.50
2018-04-26T07:54:40.796Z,100258.37
2018-04-26T07:55:48.085Z,100256.80
2018-04-26T07:56:54.259Z,100249.56
2018-04-26T07:58:00.547Z,100251.22
2018-04-26T07:59:06.758Z,100254.70
2018-04-26T08:00:13.195Z,100248.59
2018-04-26T08:01:19.500Z,100248.04
2018-04-26T08:02:26.402Z,100236.03
2018-04-26T08:03:33.823Z,100256.69
2018-04-26T08:04:41.221Z,100250.55
2018-04-26T08:05:47.936Z,100243.74
2018-04-26T08:06:54.212Z,100245.61
2018-04-26T08:08:00.548Z,100244.81
2018-04-26T08:09:05.954Z,100239.89
2018-04-26T08:10:12.235Z,100240.66
2018-04-26T08:11:19.937Z,100240.80
2018-04-26T08:12:26.118Z,100237.77
2018-04-26T08:13:32.160Z,100242.70
2018-04-26T08:14:38.390Z,100245.70
2018-04-26T08:15:44.621Z,100265.33
2018-04-26T08:16:50.918Z,100258.73
2018-04-26T08:17:57.138Z,100260.03
2018-04-26T08:19:03.333Z,100266.23
2018-04-26T08:20:09.281Z,100248.95
2018-04-26T08:21:15.575Z,100245.73
2018-04-26T08:22:21.859Z,100256.92
2018-04-26T08:23:28.960Z,100251.76
2018-04-26T08:24:35.201Z,100261.07
2018-04-26T08:25:41.412Z,100259.95
2018-04-26T08:26:47.971Z,100261.78
2018-04-26T08:27:54.274Z,100259.23
2018-04-26T08:29:01.117Z,100254.05
2018-04-26T08:30:07.383Z,100253.53
2018-04-26T08:31:13.241Z,100256.34
2018-04-26T08:32:19.530Z,100258.17
2018-04-26T08:33:25.790Z,100252.85
2018-04-26T08:34:32.423Z,100261.61
2018-04-26T08:35:38.607Z,100261.25
2018-04-26T08:36:44.913Z,100266.66
2018-04-26T08:37:51.971Z,100270.79
2018-04-26T08:38:58.158Z,100262.69
2018-04-26T08:40:03.843Z,100273.66
2018-04-26T08:41:10.114Z,100282.09
2018-04-26T08:42:16.288Z,100292.38
2018-04-26T08:43:22.470Z,100291.48
2018-04-26T08:44:28.723Z,100288.22
2018-04-26T08:45:35.130Z,100295.13
2018-04-26T08:46:41.510Z,100300.84
2018-04-26T08:47:47.761Z,100296.72
2018-04-26T08:48:54.074Z,100306.41
2018-04-26T08:50:00.291Z,100303.01
2018-04-26T08:51:07.191Z,100313.44
2018-04-26T08:52:13.492Z,100305.97
2018-04-26T08:53:20.145Z,100300.47
2018-04-26T08:54:26.459Z,100317.52
2018-04-26T08:55:35.061Z,100312.02
2018-04-26T08:56:42.032Z,100308.48
2018-04-26T08:57:49.066Z,100311.32
2018-04-26T08:58:55.583Z,100321.17
2018-04-26T09:00:01.791Z,100314.06
2018-04-26T09:01:08.024Z,100316.60
2018-04-26T09:02:14.943Z,100312.23
2018-04-26T09:03:21.276Z,100317.05
2018-04-26T09:04:27.529Z,100317.52
2018-04-26T09:05:34.408Z,100314.65
2018-04-26T09:06:41.164Z,100317.80
2018-04-26T09:07:47.503Z,100320.77
2018-04-26T09:08:54.138Z,100325.50
2018-04-26T09:10:00.480Z,100319.61
2018-04-26T09:11:08.820Z,100318.80
2018-04-26T09:12:16.270Z,100316.84
2018-04-26T09:13:22.535Z,100322.25
2018-04-26T09:14:30.676Z,100320.39
2018-04-26T09:15:37.017Z,100327.88
2018-04-26T09:16:43.238Z,100325.48
2018-04-26T09:17:49.596Z,100323.75
2018-04-26T09:18:56.336Z,100319.76
2018-04-26T09:20:02.319Z,100324.98
2018-04-26T09:21:08.587Z,100323.06
2018-04-26T09:22:14.782Z,100329.42
2018-04-26T09:23:20.986Z,100331.49
2018-04-26T09:24:27.178Z,100331.22
2018-04-26T09:25:33.410Z,100332.25
2018-04-26T09:26:41.954Z,100328.89
2018-04-26T09:27:51.178Z,100323.97
2018-04-26T09:28:58.079Z,100339.98
2018-04-26T09:30:03.697Z,100331.34
2018-04-26T09:31:10.178Z,100331.98
2018-04-26T09:32:16.398Z,100332.44
2018-04-26T09:33:22.611Z,100325.05
2018-04-26T09:34:29.306Z,100336.75
2018-04-26T09:35:35.302Z,100335.89
2018-04-26T09:36:41.554Z,100335.77
2018-04-26T09:37:47.718Z,100335.31
2018-04-26T09:38:54.154Z,100338.65
2018-04-26T09:40:00.338Z,100331.92
2018-04-26T09:41:06.634Z,100343.99
2018-04-26T09:42:12.888Z,100336.47
2018-04-26T09:43:20.616Z,100332.52
2018-04-26T09:44:26.487Z,100343.72
2018-04-26T09:45:33.362Z,100349.80
2018-04-26T09:46:39.564Z,100336.16
2018-04-26T09:47:45.806Z,100345.13
2018-04-26T09:48:52.635Z,100335.80
2018-04-26T09:49:58.915Z,100337.75
2018-04-26T09:51:05.243Z,100334.46
2018-04-26T09:52:11.630Z,100335.25
2018-04-26T09:53:17.849Z,100332.95
2018-04-26T09:54:24.026Z,100324.69
2018-04-26T09:55:32.955Z,100320.13
2018-04-26T09:56:45.750Z,100335.84
2018-04-26T09:57:52.835Z,100332.02
2018-04-26T09:59:00.387Z,100322.31
2018-04-26T10:00:06.710Z,100335.61
2018-04-26T10:01:12.730Z,100322.84
2018-04-26T10:02:18.878Z,100327.34
2018-04-26T10:03:27.728Z,100326.27
2018-04-26T10:04:39.311Z,100331.47
2018-04-26T10:05:51.023Z,100323.47
2018-04-26T10:07:00.148Z,100333.83
2018-04-26T10:08:06.354Z,100320.77
2018-04-26T10:09:12.634Z,100309.16
2018-04-26T10:10:18.939Z,100316.20
2018-04-26T10:11:25.158Z,100317.61
2018-04-26T10:12:31.493Z,100310.92
2018-04-26T10:13:37.759Z,100319.80
2018-04-26T10:14:43.927Z,100317.59
2018-04-26T10:15:50.184Z,100314.98
2018-04-26T10:16:56.442Z,100320.27
2018-04-26T10:18:02.921Z,100330.71
2018-04-26T10:19:09.110Z,100322.63
2018-04-26T10:20:15.331Z,100314.22
2018-04-26T10:21:21.870Z,100320.12
2018-04-26T10:22:28.148Z,100320.94
2018-04-26T10:23:35.019Z,100329.78
2018-04-26T10:24:41.294Z,100322.40
2018-04-26T10:25:47.607Z,100332.30
2018-04-26T10:26:54.531Z,100332.78
2018-04-26T10:28:00.782Z,100335.56
2018-04-26T10:29:09.991Z,100336.88
2018-04-26T10:30:16.159Z,100330.30
2018-04-26T10:31:22.444Z,100339.99
2018-04-26T10:32:28.683Z,100339.13
2018-04-26T10:33:35.498Z,100336.98
2018-04-26T10:34:41.804Z,100342.95
2018-04-26T10:35:48.883Z,100349.96
2018-04-26T10:36:55.726Z,100351.02
2018-04-26T10:38:02.076Z,100348.79
2018-04-26T10:39:08.360Z,100349.62
2018-04-26T10:40:14.554Z,100353.51
2018-04-26T10:41:22.417Z,100359.23
2018-04-26T10:42:28.676Z,100359.78
2018-04-26T10:43:34.927Z,100372.14
2018-04-26T10:44:42.516Z,100367.86
2018-04-26T10:45:49.626Z,100369.70
2018-04-26T10:46:56.536Z,100383.19
2018-04-26T10:48:02.763Z,100379.41
2018-04-26T10:49:09.040Z,100388.20
2018-04-26T10:50:15.348Z,100388.25
2018-04-26T10:51:21.707Z,100400.22
2018-04-26T10:52:28.019Z,100403.91
2018-04-26T10:53:34.319Z,100415.05
2018-04-26T10:54:40.630Z,100415.24
2018-04-26T10:55:46.886Z,100405.22
2018-04-26T10:56:53.134Z,100411.62
2018-04-26T10:57:59.471Z,100402.16
2018-04-26T10:59:05.750Z,100404.96
2018-04-26T11:00:12.959Z,100407.83
2018-04-26T11:01:20.075Z,100405.83
2018-04-26T11:02:26.323Z,100397.72
2018-04-26T11:03:32.647Z,100399.57
2018-04-26T11:04:38.959Z,100389.52
2018-04-26T11:05:45.191Z,100389.35
2018-04-26T11:06:51.467Z,100391.36
2018-04-26T11:07:57.367Z,100389.52
2018-04-26T11:09:03.560Z,100390.03
2018-04-26T11:10:09.791Z,100392.97
2018-04-26T11:11:16.107Z,100380.98
2018-04-26T11:12:22.518Z,100376.36
2018-04-26T11:13:28.745Z,100380.56
2018-04-26T11:14:35.043Z,100383.77
2018-04-26T11:15:41.316Z,100392.83
2018-04-26T11:16:47.662Z,100383.91
2018-04-26T11:17:54.448Z,100385.02
2018-04-26T11:19:01.431Z,100389.48
2018-04-26T11:20:07.605Z,100385.14
2018-04-26T11:21:14.386Z,100383.52
2018-04-26T11:22:20.957Z,100382.95
2018-04-26T11:23:27.213Z,100385.91
2018-04-26T11:24:33.423Z,100389.18
2018-04-26T11:25:40.383Z,100385.48
2018-04-26T11:26:46.291Z,100387.98
2018-04-26T11:27:52.522Z,100401.56
2018-04-26T11:28:58.758Z,100388.48
2018-04-26T11:30:04.356Z,100399.11
2018-04-26T11:31:10.634Z,100404.59
2018-04-26T11:32:16.835Z,100398.72
2018-04-26T11:33:23.073Z,100399.13
2018-04-26T11:34:29.368Z,100401.49
2018-04-26T11:35:35.701Z,100398.46
2018-04-26T11:36:44.287Z,100390.09
2018-04-26T11:37:51.270Z,100382.08
2018-04-26T11:38:58.135Z,100389.37
2018-04-26T11:40:07.762Z,100382.08
2018-04-26T11:41:14.091Z,100390.24
2018-04-26T11:42:20.330Z,100375.34
2018-04-26T11:43:26.674Z,100385.30
2018-04-26T11:44:32.934Z,100383.00
2018-04-26T11:45:39.116Z,100381.20
2018-04-26T11:46:45.367Z,100384.25
2018-04-26T11:47:51.883Z,100383.09
2018-04-26T11:48:59.028Z,100371.41
2018-04-26T11:50:05.307Z,100379.79
2018-04-26T11:51:11.384Z,100376.32
2018-04-26T11:52:20.189Z,100381.30
2018-04-26T11:53:27.182Z,100381.47
2018-04-26T11:54:33.594Z,100376.64
2018-04-26T11:55:40.317Z,100373.89
2018-04-26T11:56:53.021Z,100379.91
2018-04-26T11:57:59.440Z,100369.05
2018-04-26T11:59:05.774Z,100383.88
2018-04-26T12:00:12.624Z,100372.40
2018-04-26T12:01:19.680Z,100371.95
2018-04-26T12:02:26.704Z,100380.47
2018-04-26T12:03:33.914Z,100375.30
2018-04-26T12:04:41.864Z,100381.21
2018-04-26T12:05:49.100Z,100371.07
2018-04-26T12:06:56.435Z,100374.39
2018-04-26T12:08:03.566Z,100379.87
2018-04-26T12:09:10.691Z,100373.96
2018-04-26T12:10:17.719Z,100382.43
2018-04-26T12:11:26.140Z,100373.93
2018-04-26T12:12:32.653Z,100383.63
2018-04-26T12:13:39.505Z,100379.80
2018-04-26T12:14:45.906Z,100375.09
2018-04-26T12:15:52.184Z,100391.58
2018-04-26T12:16:58.586Z,100378.95
2018-04-26T12:18:04.794Z,100384.13
2018-04-26T12:19:12.571Z,100377.23
2018-04-26T12:20:19.132Z,100383.00
2018-04-26T12:21:30.044Z,100393.55
2018-04-26T12:22:40.443Z,100383.17
2018-04-26T12:23:46.733Z,100386.24
2018-04-26T12:24:53.035Z,100389.72
2018-04-26T12:25:59.350Z,100384.02
2018-04-26T12:27:05.652Z,100392.62
2018-04-26T12:28:11.987Z,100390.52
2018-04-26T12:29:18.342Z,100395.93
2018-04-26T12:30:24.887Z,100390.13
2018-04-26T12:31:31.461Z,100393.05
2018-04-26T12:32:37.676Z,100395.09
2018-04-26T12:33:43.778Z,100397.19
2018-04-26T12:34:50.627Z,100394.59
2018-04-26T12:35:56.834Z,100393.66
2018-04-26T12:37:03.179Z,100391.06
2018-04-26T12:38:09.231Z,100403.33
2018-04-26T12:39:15.619Z,100403.64
2018-04-26T12:40:21.899Z,100407.56
2018-04-26T12:41:28.161Z,100399.79
2018-04-26T12:42:34.406Z,100391.02
2018-04-26T12:43:40.617Z,100389.67